Laingsburg, Michigan
Current Conditions -  °F | °C
As of 10:55 AM on Sunday 21 Dec 2014 (Local Time) from KRNP Reporting Station
Haze Haze  
Wind Chill: 26°   Ceiling: 5500
Heat Index: 31°   Visibility: 5mi
Dew Point: 28°   Wind: 5mph
Humidity: 89%   Direction: 150°SSE
Pressure: 30.27"   Gusts: NA
Location:  42.89°N, 84.35°W
Report Text: KRNP 211555Z AUTO 15004KT 5SM BR OVC055 M01/M02 A3027 RMK AO2 T10071023
Loading
Personal Weather Stations






























Interactive Weather Map New forecast layout! Learn more

10-Day Weather Forecast

Advertisements
Track Severe Weather on mobile